Time;durP1;ratioP1;P1;durP2;ratioP2;P2;SDS_P1;SDS_P2;PMS_P1;PMS_P2;Temp;Humidity;BMP_temperature;BMP_pressure;BME280_temperature;BME280_humidity;BME280_pressure;Samples;Min_cycle;Max_cycle;Signal;HPM_P1;HPM_P2
2021/12/17 00:00:03;;;;;;;;;;;20.50;46.80;;;;;;671371;29;1139;-86
2021/12/17 00:00:23;;;;;;;;;;;20.50;46.90;;;;;;669650;29;1113;-88
2021/12/17 00:00:46;;;;;;;;;;;20.50;46.80;;;;;;672131;29;1116;-87
2021/12/17 00:01:10;;;;;;;;;;;20.50;46.80;;;;;;672526;29;1290;-87
2021/12/17 00:02:12;;;;;;;;;;;20.50;46.80;;;;;;669633;29;1375;-88
2021/12/17 00:03:21;;;;;;;;;;;20.50;46.70;;;;;;676240;29;859;-87
2021/12/17 00:03:49;;;;;;;;;;;20.50;46.80;;;;;;677488;29;1219;-87
2021/12/17 00:04:26;;;;;;;;;;;20.50;46.70;;;;;;675122;29;1192;-85
2021/12/17 00:05:20;;;;;;;;;;;20.50;46.80;;;;;;674929;29;808;-87
2021/12/17 00:05:50;;;;;;;;;;;20.50;46.70;;;;;;674289;29;1206;-87
2021/12/17 00:06:29;;;;;;;;;;;20.50;46.70;;;;;;675689;29;1299;-87
2021/12/17 00:06:49;;;;;;;;;;;20.50;46.60;;;;;;674575;29;1467;-88
2021/12/17 00:07:12;;;;;;;;;;;20.40;46.50;;;;;;672553;29;1903;-87
2021/12/17 00:07:35;;;;;;;;;;;20.40;46.60;;;;;;672567;29;1193;-87
2021/12/17 00:07:55;;;;;;;;;;;20.50;46.60;;;;;;672947;29;1270;-86
2021/12/17 00:08:16;;;;;;;;;;;20.50;46.60;;;;;;672751;29;1217;-87
2021/12/17 00:08:45;;;;;;;;;;;20.40;46.50;;;;;;673783;29;1385;-87
2021/12/17 00:09:06;;;;;;;;;;;20.50;46.70;;;;;;674345;29;1297;-90
2021/12/17 00:09:26;;;;;;;;;;;20.40;46.60;;;;;;672654;29;1337;-88
2021/12/17 00:09:48;;;;;;;;;;;20.40;46.50;;;;;;670899;29;1194;-87
2021/12/17 00:10:15;;;;;;;;;;;20.40;46.50;;;;;;669790;29;1354;-87
2021/12/17 00:10:36;;;;;;;;;;;20.40;46.70;;;;;;670686;29;1500;-88
2021/12/17 00:10:57;;;;;;;;;;;20.50;46.50;;;;;;672689;29;1244;-88
2021/12/17 00:11:18;;;;;;;;;;;20.40;46.50;;;;;;672336;29;1121;-87
2021/12/17 00:11:39;;;;;;;;;;;20.40;46.50;;;;;;672266;29;1228;-88
2021/12/17 00:12:00;;;;;;;;;;;20.50;46.70;;;;;;672245;29;1369;-87
2021/12/17 00:12:21;;;;;;;;;;;20.40;46.50;;;;;;672648;29;1215;-87
2021/12/17 00:12:42;;;;;;;;;;;20.40;46.40;;;;;;674840;29;1099;-88
2021/12/17 00:13:03;;;;;;;;;;;20.40;46.40;;;;;;675342;29;1319;-87
2021/12/17 00:13:23;;;;;;;;;;;20.40;46.40;;;;;;673230;29;1437;-87
2021/12/17 00:13:46;;;;;;;;;;;20.40;46.40;;;;;;672766;29;1238;-87
2021/12/17 00:15:05;;;;;;;;;;;20.40;46.40;;;;;;670327;29;602;-87
2021/12/17 00:15:26;;;;;;;;;;;20.40;46.50;;;;;;672887;29;1228;-88
2021/12/17 00:15:47;;;;;;;;;;;20.40;46.60;;;;;;675364;29;1347;-87
2021/12/17 00:16:15;;;;;;;;;;;20.40;46.50;;;;;;677863;29;1220;-86
2021/12/17 00:16:39;;;;;;;;;;;20.40;46.50;;;;;;677958;29;1204;-87
2021/12/17 00:17:02;;;;;;;;;;;20.40;46.60;;;;;;678013;29;863;-88
2021/12/17 00:17:27;;;;;;;;;;;20.40;46.40;;;;;;678867;29;1203;-87
2021/12/17 00:17:55;;;;;;;;;;;20.40;46.40;;;;;;674660;29;1101;-87
2021/12/17 00:18:32;;;;;;;;;;;20.40;46.40;;;;;;675120;29;1124;-87
2021/12/17 00:20:23;;;;;;;;;;;20.40;46.50;;;;;;680233;29;1005;-88
2021/12/17 00:43:59;;;;;;;;;;;20.40;46.30;;;;;;683201;29;863;-87
2021/12/17 00:44:17;;;;;;;;;;;20.40;46.30;;;;;;683261;29;613;-88
2021/12/17 00:48:36;;;;;;;;;;;20.40;46.20;;;;;;683138;29;602;-87
2021/12/17 00:48:56;;;;;;;;;;;20.30;46.10;;;;;;685363;28;1214;-87
2021/12/17 00:49:17;;;;;;;;;;;20.40;46.20;;;;;;685456;28;859;-87
2021/12/17 00:49:45;;;;;;;;;;;20.40;46.30;;;;;;685402;28;1098;-88
2021/12/17 00:51:57;;;;;;;;;;;20.40;46.00;;;;;;680062;29;831;-86
2021/12/17 00:52:18;;;;;;;;;;;20.40;46.20;;;;;;679911;29;1309;-88
2021/12/17 00:52:40;;;;;;;;;;;20.40;46.20;;;;;;677113;29;1167;-86
2021/12/17 00:53:05;;;;;;;;;;;20.30;46.20;;;;;;677381;29;1323;-89
2021/12/17 00:53:27;;;;;;;;;;;20.40;46.10;;;;;;677294;29;1199;-86
2021/12/17 00:53:50;;;;;;;;;;;20.30;46.00;;;;;;674824;29;1280;-89
2021/12/17 00:54:29;;;;;;;;;;;20.40;46.20;;;;;;672246;29;1290;-85
2021/12/17 00:54:49;;;;;;;;;;;20.40;46.10;;;;;;675797;29;878;-86
2021/12/17 00:55:10;;;;;;;;;;;20.30;46.00;;;;;;674792;29;1097;-87
2021/12/17 00:55:33;;;;;;;;;;;20.30;46.00;;;;;;672392;29;1378;-86
2021/12/17 00:55:54;;;;;;;;;;;20.30;46.00;;;;;;672591;29;1220;-90
2021/12/17 00:56:15;;;;;;;;;;;20.40;46.00;;;;;;674865;29;1188;-88
2021/12/17 00:56:35;;;;;;;;;;;20.40;46.10;;;;;;674890;29;1239;-91
2021/12/17 00:56:57;;;;;;;;;;;20.30;46.10;;;;;;675376;29;1323;-91
2021/12/17 00:57:22;;;;;;;;;;;20.40;46.10;;;;;;678315;29;1108;-89
2021/12/17 00:57:45;;;;;;;;;;;20.30;47.30;;;;;;677631;29;1278;-89
2021/12/17 00:58:06;;;;;;;;;;;20.30;46.30;;;;;;677495;29;1135;-90
2021/12/17 00:58:26;;;;;;;;;;;20.40;46.40;;;;;;673643;29;1363;-88
2021/12/17 00:58:47;;;;;;;;;;;20.40;46.30;;;;;;673491;29;1258;-89
2021/12/17 00:59:08;;;;;;;;;;;20.40;46.30;;;;;;674961;29;1149;-91
2021/12/17 00:59:28;;;;;;;;;;;20.40;46.40;;;;;;672857;29;1219;-90
2021/12/17 00:59:51;;;;;;;;;;;20.40;46.30;;;;;;672303;29;1322;-92
2021/12/17 01:00:15;;;;;;;;;;;20.40;46.30;;;;;;672844;29;1121;-90
2021/12/17 01:00:36;;;;;;;;;;;20.40;46.30;;;;;;675603;29;1241;-86
2021/12/17 01:00:56;;;;;;;;;;;20.40;46.30;;;;;;676389;29;1318;-89
2021/12/17 01:01:17;;;;;;;;;;;20.40;46.40;;;;;;675804;29;1231;-89
2021/12/17 01:01:38;;;;;;;;;;;20.40;46.30;;;;;;678518;29;1261;-88
2021/12/17 01:02:01;;;;;;;;;;;20.40;46.40;;;;;;680098;29;1240;-91
2021/12/17 01:02:23;;;;;;;;;;;20.40;46.30;;;;;;680080;29;1352;-89
2021/12/17 01:02:44;;;;;;;;;;;20.30;46.20;;;;;;679888;29;1099;-89
2021/12/17 01:03:05;;;;;;;;;;;20.40;46.30;;;;;;680915;29;1444;-90
2021/12/17 01:03:25;;;;;;;;;;;20.40;46.30;;;;;;679232;29;1140;-89
2021/12/17 01:03:46;;;;;;;;;;;20.40;46.30;;;;;;677298;29;1490;-90
2021/12/17 01:04:07;;;;;;;;;;;20.40;46.30;;;;;;677497;29;1109;-91
2021/12/17 01:04:27;;;;;;;;;;;20.30;46.20;;;;;;677768;29;1273;-91
2021/12/17 01:04:50;;;;;;;;;;;20.30;46.20;;;;;;679683;29;1222;-91
2021/12/17 01:05:12;;;;;;;;;;;20.40;46.20;;;;;;677971;29;1363;-89
2021/12/17 01:05:33;;;;;;;;;;;20.40;46.30;;;;;;680746;29;1484;-89
2021/12/17 01:05:54;;;;;;;;;;;20.30;46.20;;;;;;682791;29;1193;-92
2021/12/17 01:06:15;;;;;;;;;;;20.40;46.20;;;;;;682745;29;1394;-90
2021/12/17 01:06:35;;;;;;;;;;;20.40;46.20;;;;;;679133;29;1225;-90
2021/12/17 01:06:56;;;;;;;;;;;20.40;46.30;;;;;;677414;29;1180;-90
2021/12/17 01:07:18;;;;;;;;;;;20.40;46.20;;;;;;674795;29;1879;-91
2021/12/17 01:07:40;;;;;;;;;;;20.40;46.20;;;;;;674902;29;1255;-90
2021/12/17 01:08:04;;;;;;;;;;;20.40;46.30;;;;;;676936;29;1345;-90
2021/12/17 01:08:24;;;;;;;;;;;20.30;46.10;;;;;;678465;29;1482;-91
2021/12/17 01:08:47;;;;;;;;;;;20.30;46.10;;;;;;679937;29;880;-89
2021/12/17 01:09:09;;;;;;;;;;;20.40;46.20;;;;;;678748;29;1222;-90
2021/12/17 01:09:29;;;;;;;;;;;20.40;46.20;;;;;;678932;29;1174;-90
2021/12/17 01:09:50;;;;;;;;;;;20.40;46.20;;;;;;674881;29;1332;-92
2021/12/17 01:10:14;;;;;;;;;;;20.30;46.10;;;;;;673093;29;1094;-89
2021/12/17 01:10:39;;;;;;;;;;;20.40;46.10;;;;;;672415;29;1085;-88
2021/12/17 01:10:59;;;;;;;;;;;20.30;46.10;;;;;;670854;29;1397;-89
2021/12/17 01:11:20;;;;;;;;;;;20.30;46.10;;;;;;672462;29;1168;-88
2021/12/17 01:11:41;;;;;;;;;;;20.40;46.20;;;;;;673575;29;1349;-90
2021/12/17 01:12:02;;;;;;;;;;;20.30;47.20;;;;;;673459;29;1369;-90
2021/12/17 01:12:23;;;;;;;;;;;20.40;46.10;;;;;;673225;29;1242;-90
2021/12/17 01:12:44;;;;;;;;;;;20.40;46.10;;;;;;674672;29;1259;-91
2021/12/17 01:13:07;;;;;;;;;;;20.40;46.10;;;;;;674734;29;1133;-87
2021/12/17 01:13:27;;;;;;;;;;;20.40;46.10;;;;;;674904;29;1257;-89
2021/12/17 01:13:48;;;;;;;;;;;20.40;46.10;;;;;;675470;29;1137;-89
2021/12/17 01:14:09;;;;;;;;;;;20.30;46.10;;;;;;675499;29;1171;-89
2021/12/17 01:14:30;;;;;;;;;;;20.30;46.00;;;;;;677417;29;1230;-89
2021/12/17 01:14:51;;;;;;;;;;;20.30;46.00;;;;;;677335;29;1487;-89
2021/12/17 01:15:14;;;;;;;;;;;20.30;46.10;;;;;;677372;29;1309;-91
2021/12/17 01:15:35;;;;;;;;;;;20.40;46.10;;;;;;676651;29;1266;-91
2021/12/17 01:15:56;;;;;;;;;;;20.30;46.10;;;;;;678138;29;1491;-90
2021/12/17 01:16:17;;;;;;;;;;;20.30;46.00;;;;;;678144;29;1310;-88
2021/12/17 01:16:38;;;;;;;;;;;20.30;46.00;;;;;;677543;29;1127;-89
2021/12/17 01:16:59;;;;;;;;;;;20.30;46.00;;;;;;676734;29;1353;-91
2021/12/17 01:17:21;;;;;;;;;;;20.40;46.00;;;;;;674635;29;1262;-89
2021/12/17 01:17:44;;;;;;;;;;;20.30;46.00;;;;;;674258;29;1244;-88
2021/12/17 01:18:10;;;;;;;;;;;20.30;46.00;;;;;;673122;29;1172;-89
2021/12/17 01:19:45;;;;;;;;;;;20.40;46.00;;;;;;673787;29;1199;-90
2021/12/17 01:20:26;;;;;;;;;;;20.30;45.90;;;;;;677489;29;1290;-90
2021/12/17 01:21:09;;;;;;;;;;;20.40;46.00;;;;;;680410;29;1475;-87
2021/12/17 01:25:01;;;;;;;;;;;20.40;46.00;;;;;;680654;29;1359;-90
2021/12/17 01:35:30;;;;;;;;;;;20.30;45.90;;;;;;688453;28;629;-90
2021/12/17 01:35:50;;;;;;;;;;;20.30;45.90;;;;;;688208;28;1307;-87
2021/12/17 01:36:11;;;;;;;;;;;20.30;45.80;;;;;;687593;28;1170;-88
2021/12/17 01:36:32;;;;;;;;;;;20.30;45.90;;;;;;688195;28;1333;-87
2021/12/17 01:37:11;;;;;;;;;;;20.30;45.80;;;;;;687989;28;1189;-92
2021/12/17 01:41:17;;;;;;;;;;;20.30;45.80;;;;;;688385;28;703;-91
2021/12/17 01:42:17;;;;;;;;;;;20.20;45.60;;;;;;688127;28;668;-90
2021/12/17 01:42:38;;;;;;;;;;;20.30;45.80;;;;;;686303;28;1292;-90
2021/12/17 01:42:59;;;;;;;;;;;20.30;45.70;;;;;;688058;28;1240;-88
2021/12/17 01:43:20;;;;;;;;;;;20.30;45.70;;;;;;688161;28;1259;-89
2021/12/17 01:43:45;;;;;;;;;;;20.30;45.70;;;;;;685475;28;1271;-90
2021/12/17 01:44:06;;;;;;;;;;;20.30;45.80;;;;;;685519;28;1452;-88
2021/12/17 01:44:27;;;;;;;;;;;20.30;45.70;;;;;;685334;28;1232;-89
2021/12/17 01:44:48;;;;;;;;;;;20.30;45.80;;;;;;684221;28;1256;-88
2021/12/17 01:45:08;;;;;;;;;;;20.30;45.70;;;;;;683873;28;1327;-91
2021/12/17 01:45:34;;;;;;;;;;;20.30;45.70;;;;;;682419;29;1131;-89
2021/12/17 01:45:56;;;;;;;;;;;20.30;45.70;;;;;;680168;29;1194;-90
2021/12/17 01:46:20;;;;;;;;;;;20.30;45.60;;;;;;677590;29;1140;-92
2021/12/17 01:46:41;;;;;;;;;;;20.30;45.60;;;;;;676394;29;1147;-85
2021/12/17 01:47:02;;;;;;;;;;;20.30;45.60;;;;;;676713;29;1296;-90
2021/12/17 01:47:23;;;;;;;;;;;20.30;45.60;;;;;;676468;29;1907;-88
2021/12/17 01:47:44;;;;;;;;;;;20.40;45.60;;;;;;678556;29;1202;-89
2021/12/17 01:48:11;;;;;;;;;;;20.30;45.50;;;;;;678361;29;1141;-89
2021/12/17 01:48:49;;;;;;;;;;;20.40;45.60;;;;;;681348;29;1152;-89
2021/12/17 01:55:49;;;;;;;;;;;20.40;45.40;;;;;;680748;29;566;-90
2021/12/17 01:56:53;;;;;;;;;;;20.40;45.40;;;;;;680528;29;1024;-92
2021/12/17 01:59:37;;;;;;;;;;;20.40;45.30;;;;;;680601;29;793;-90
2021/12/17 02:00:05;;;;;;;;;;;20.40;45.30;;;;;;680512;29;1239;-89
2021/12/17 02:00:30;;;;;;;;;;;20.40;45.30;;;;;;680542;29;1169;-89
2021/12/17 02:00:51;;;;;;;;;;;20.40;45.30;;;;;;680416;29;1262;-90
2021/12/17 02:01:12;;;;;;;;;;;20.40;45.30;;;;;;680492;29;1481;-90
2021/12/17 02:01:34;;;;;;;;;;;20.40;45.30;;;;;;680443;29;1245;-89
2021/12/17 02:02:00;;;;;;;;;;;20.40;45.30;;;;;;678513;29;1269;-89
2021/12/17 02:02:20;;;;;;;;;;;20.50;45.30;;;;;;675313;29;1284;-89
2021/12/17 02:02:49;;;;;;;;;;;20.40;45.20;;;;;;674062;29;1314;-89
2021/12/17 02:03:13;;;;;;;;;;;20.40;45.30;;;;;;674793;29;1189;-88
2021/12/17 02:03:33;;;;;;;;;;;20.40;45.20;;;;;;672778;29;1281;-88
2021/12/17 02:03:55;;;;;;;;;;;20.40;45.30;;;;;;677713;29;1215;-93
2021/12/17 02:04:16;;;;;;;;;;;20.40;45.10;;;;;;679982;29;1273;-89
2021/12/17 02:04:39;;;;;;;;;;;20.40;45.00;;;;;;678594;29;1233;-89
2021/12/17 02:05:00;;;;;;;;;;;20.40;45.10;;;;;;675273;29;1191;-89
2021/12/17 02:05:23;;;;;;;;;;;20.40;45.20;;;;;;674502;29;1319;-92
2021/12/17 02:05:45;;;;;;;;;;;20.30;45.20;;;;;;675437;29;1124;-92
2021/12/17 02:06:06;;;;;;;;;;;20.50;45.30;;;;;;674306;29;1199;-88
2021/12/17 02:06:31;;;;;;;;;;;20.40;45.30;;;;;;676446;29;1194;-90
2021/12/17 02:06:51;;;;;;;;;;;20.40;45.30;;;;;;679177;29;1322;-91
2021/12/17 02:07:12;;;;;;;;;;;20.40;45.10;;;;;;679077;29;1910;-91
2021/12/17 02:07:36;;;;;;;;;;;20.40;45.30;;;;;;675322;29;1324;-91
2021/12/17 02:07:59;;;;;;;;;;;20.40;45.30;;;;;;674078;29;1287;-89
2021/12/17 02:08:19;;;;;;;;;;;20.30;45.00;;;;;;675370;29;1117;-87
2021/12/17 02:08:44;;;;;;;;;;;20.40;45.20;;;;;;674238;29;1136;-89
2021/12/17 02:09:24;;;;;;;;;;;20.40;45.10;;;;;;676822;29;1214;-86
2021/12/17 02:19:41;;;;;;;;;;;20.30;45.30;;;;;;681023;29;657;-89
2021/12/17 02:20:43;;;;;;;;;;;20.30;45.30;;;;;;681030;29;642;-88
2021/12/17 02:23:08;;;;;;;;;;;20.20;45.40;;;;;;680695;29;765;-89
2021/12/17 02:28:57;;;;;;;;;;;20.20;45.50;;;;;;672870;29;658;-89
2021/12/17 02:30:13;;;;;;;;;;;20.20;45.50;;;;;;672752;29;709;-90
2021/12/17 02:31:02;;;;;;;;;;;20.20;45.50;;;;;;673096;29;1556;-90
2021/12/17 02:31:27;;;;;;;;;;;20.20;45.50;;;;;;670262;29;1267;-89
2021/12/17 02:31:56;;;;;;;;;;;20.20;45.50;;;;;;670153;29;1194;-91
2021/12/17 02:32:30;;;;;;;;;;;;;;;;;;;;;
2021/12/17 02:33:00;;;;;;;;;;;20.20;45.60;;;;;;683057;29;1010;-91
2021/12/17 02:33:50;;;;;;;;;;;20.20;45.60;;;;;;680376;29;1246;-90
2021/12/17 02:35:47;;;;;;;;;;;20.20;45.60;;;;;;677809;29;1184;-90
2021/12/17 02:36:08;;;;;;;;;;;20.20;45.50;;;;;;675062;29;1434;-89
2021/12/17 02:36:48;;;;;;;;;;;20.20;45.60;;;;;;672589;29;1346;-89
2021/12/17 02:37:16;;;;;;;;;;;20.20;45.60;;;;;;670172;29;1102;-89
2021/12/17 02:37:40;;;;;;;;;;;20.10;45.50;;;;;;669789;29;1304;-88
2021/12/17 02:38:03;;;;;;;;;;;20.20;45.50;;;;;;669946;29;1294;-89
2021/12/17 02:38:30;;;;;;;;;;;20.20;45.50;;;;;;671877;29;1151;-89
2021/12/17 02:38:56;;;;;;;;;;;20.20;46.60;;;;;;672442;29;1234;-88
2021/12/17 02:45:34;;;;;;;;;;;20.20;45.50;;;;;;672703;29;650;-89
2021/12/17 02:45:55;;;;;;;;;;;20.20;45.40;;;;;;670352;29;1255;-86
2021/12/17 02:46:16;;;;;;;;;;;20.20;45.40;;;;;;670377;29;1515;-87
2021/12/17 02:46:36;;;;;;;;;;;20.20;45.50;;;;;;668154;29;1239;-89
2021/12/17 02:46:57;;;;;;;;;;;20.10;45.40;;;;;;668026;29;1182;-87
2021/12/17 02:47:18;;;;;;;;;;;20.20;45.50;;;;;;667864;29;1895;-87
2021/12/17 02:47:39;;;;;;;;;;;20.20;45.50;;;;;;668304;29;1261;-87
2021/12/17 02:48:12;;;;;;;;;;;20.20;45.50;;;;;;670151;29;1317;-87
2021/12/17 02:48:34;;;;;;;;;;;20.10;45.50;;;;;;668064;29;1214;-86
2021/12/17 02:48:55;;;;;;;;;;;20.20;45.50;;;;;;669868;29;1119;-87
2021/12/17 02:49:17;;;;;;;;;;;20.20;45.40;;;;;;668062;29;1390;-86
2021/12/17 02:49:41;;;;;;;;;;;20.20;45.40;;;;;;665876;29;1291;-87
2021/12/17 02:50:04;;;;;;;;;;;20.20;45.50;;;;;;665456;29;1220;-86
2021/12/17 02:50:25;;;;;;;;;;;20.20;45.40;;;;;;669410;29;1164;-88
2021/12/17 02:50:49;;;;;;;;;;;20.20;45.40;;;;;;667994;29;1369;-90
2021/12/17 02:51:10;;;;;;;;;;;20.20;45.40;;;;;;669610;29;1184;-89
2021/12/17 02:51:31;;;;;;;;;;;20.20;45.40;;;;;;666582;29;1121;-88
2021/12/17 02:51:51;;;;;;;;;;;20.20;45.40;;;;;;667909;29;1327;-90
2021/12/17 02:52:13;;;;;;;;;;;20.20;45.40;;;;;;667195;29;1228;-89
2021/12/17 02:52:37;;;;;;;;;;;20.10;45.30;;;;;;667941;29;1106;-90
2021/12/17 02:53:00;;;;;;;;;;;20.10;45.30;;;;;;668930;29;1209;-90
2021/12/17 02:53:22;;;;;;;;;;;20.20;45.40;;;;;;669317;29;1192;-91
2021/12/17 02:53:42;;;;;;;;;;;20.20;45.40;;;;;;666572;29;1383;-89
2021/12/17 02:54:03;;;;;;;;;;;20.20;45.40;;;;;;666803;29;1189;-90
2021/12/17 02:54:24;;;;;;;;;;;20.20;45.40;;;;;;667966;29;1147;-88
2021/12/17 02:54:46;;;;;;;;;;;20.20;45.40;;;;;;668015;29;1359;-87
2021/12/17 02:55:07;;;;;;;;;;;20.10;45.30;;;;;;667827;29;1202;-89
2021/12/17 02:55:29;;;;;;;;;;;20.20;45.40;;;;;;668873;29;1324;-87
2021/12/17 02:55:52;;;;;;;;;;;20.10;45.30;;;;;;667222;29;1093;-88
2021/12/17 02:56:13;;;;;;;;;;;20.20;45.30;;;;;;666858;29;1242;-89
2021/12/17 02:56:33;;;;;;;;;;;20.20;45.40;;;;;;667034;29;1288;-88
2021/12/17 02:56:54;;;;;;;;;;;20.20;45.30;;;;;;667903;29;1070;-87
2021/12/17 02:57:15;;;;;;;;;;;20.10;45.30;;;;;;667723;29;1278;-86
2021/12/17 02:57:35;;;;;;;;;;;20.20;45.30;;;;;;670563;29;1291;-88
2021/12/17 02:57:57;;;;;;;;;;;20.20;45.40;;;;;;674587;29;1086;-85
2021/12/17 02:58:20;;;;;;;;;;;20.20;45.30;;;;;;674797;29;1229;-86
2021/12/17 02:58:41;;;;;;;;;;;20.20;45.40;;;;;;674441;29;1144;-86
2021/12/17 02:59:02;;;;;;;;;;;20.20;45.40;;;;;;675300;29;1255;-88
2021/12/17 02:59:23;;;;;;;;;;;20.10;45.30;;;;;;672749;29;1292;-89
2021/12/17 02:59:54;;;;;;;;;;;20.10;45.30;;;;;;670804;29;1284;-86
2021/12/17 03:00:17;;;;;;;;;;;20.10;45.30;;;;;;670045;29;1283;-88
2021/12/17 03:00:39;;;;;;;;;;;20.10;45.30;;;;;;670895;29;1316;-91
2021/12/17 03:01:03;;;;;;;;;;;20.10;45.30;;;;;;670450;29;1364;-89
2021/12/17 03:01:24;;;;;;;;;;;20.10;45.30;;;;;;675020;29;1271;-88
2021/12/17 03:01:45;;;;;;;;;;;20.10;45.40;;;;;;672337;29;1141;-89
2021/12/17 03:02:15;;;;;;;;;;;20.10;45.40;;;;;;675003;29;1211;-87
2021/12/17 03:02:38;;;;;;;;;;;20.10;45.30;;;;;;673110;29;1222;-88
2021/12/17 03:02:59;;;;;;;;;;;20.10;45.30;;;;;;672869;29;1159;-88
2021/12/17 03:03:22;;;;;;;;;;;20.10;45.30;;;;;;675351;29;1248;-90
2021/12/17 03:03:44;;;;;;;;;;;20.10;45.30;;;;;;674732;29;1140;-90
2021/12/17 03:04:05;;;;;;;;;;;20.10;45.30;;;;;;670322;29;1128;-88
2021/12/17 03:04:29;;;;;;;;;;;20.10;45.30;;;;;;672136;29;1476;-87
2021/12/17 03:04:53;;;;;;;;;;;20.10;45.30;;;;;;671524;29;1357;-89
2021/12/17 03:05:14;;;;;;;;;;;20.10;45.20;;;;;;670534;29;1443;-90
2021/12/17 03:05:43;;;;;;;;;;;20.10;45.30;;;;;;671821;29;1251;-88
2021/12/17 03:06:07;;;;;;;;;;;20.10;45.30;;;;;;672523;29;1311;-90
2021/12/17 03:06:30;;;;;;;;;;;20.10;45.30;;;;;;670132;29;1130;-89
2021/12/17 03:06:55;;;;;;;;;;;20.10;45.20;;;;;;667587;29;1172;-90
2021/12/17 03:07:16;;;;;;;;;;;20.10;45.30;;;;;;670097;29;1908;-88
2021/12/17 03:07:43;;;;;;;;;;;20.20;45.30;;;;;;669612;29;1252;-88
2021/12/17 03:08:07;;;;;;;;;;;20.10;45.30;;;;;;672176;29;1176;-89
2021/12/17 03:08:29;;;;;;;;;;;20.20;45.30;;;;;;669763;29;1245;-90
2021/12/17 03:08:50;;;;;;;;;;;20.10;45.30;;;;;;669822;29;1098;-90
2021/12/17 03:09:11;;;;;;;;;;;20.10;45.30;;;;;;672681;29;1290;-89
2021/12/17 03:09:59;;;;;;;;;;;20.10;45.20;;;;;;670280;29;1368;-88
2021/12/17 03:10:22;;;;;;;;;;;20.10;45.30;;;;;;671528;29;1169;-90
2021/12/17 03:10:48;;;;;;;;;;;20.20;45.30;;;;;;674138;29;1204;-89
2021/12/17 03:11:09;;;;;;;;;;;20.10;45.30;;;;;;670580;29;1267;-88
2021/12/17 03:11:37;;;;;;;;;;;20.10;45.30;;;;;;670014;29;1098;-90
2021/12/17 03:11:58;;;;;;;;;;;20.10;45.30;;;;;;667077;29;1318;-90
2021/12/17 03:12:26;;;;;;;;;;;20.10;45.30;;;;;;669440;29;1223;-91
2021/12/17 03:12:51;;;;;;;;;;;20.10;45.30;;;;;;667411;29;1348;-92
2021/12/17 03:13:12;;;;;;;;;;;20.10;45.30;;;;;;670131;29;1221;-88
2021/12/17 03:13:35;;;;;;;;;;;20.10;45.30;;;;;;673241;29;1166;-91
2021/12/17 03:13:56;;;;;;;;;;;20.10;45.30;;;;;;683234;29;1440;-87
2021/12/17 03:14:16;;;;;;;;;;;20.10;45.30;;;;;;682766;29;1297;-90
2021/12/17 03:14:46;;;;;;;;;;;20.10;45.30;;;;;;681933;28;1097;-91
2021/12/17 03:15:20;;;;;;;;;;;20.10;45.30;;;;;;682405;29;1328;-88
2021/12/17 03:15:53;;;;;;;;;;;20.10;45.30;;;;;;680531;29;1373;-89
2021/12/17 03:16:28;;;;;;;;;;;20.10;45.20;;;;;;682838;29;1222;-90
2021/12/17 03:17:00;;;;;;;;;;;20.10;45.20;;;;;;680596;29;1575;-89
2021/12/17 03:17:42;;;;;;;;;;;20.10;45.30;;;;;;683285;29;1165;-91
2021/12/17 03:19:13;;;;;;;;;;;20.10;45.20;;;;;;690489;28;964;-91
2021/12/17 03:23:27;;;;;;;;;;;20.10;45.20;;;;;;688870;28;1124;-86
2021/12/17 03:23:39;;;;;;;;;;;20.10;45.20;;;;;;678213;29;650;-86
2021/12/17 03:24:00;;;;;;;;;;;20.10;45.20;;;;;;677120;29;1312;-91
2021/12/17 03:24:31;;;;;;;;;;;20.10;45.20;;;;;;675354;29;1256;-90
2021/12/17 03:24:52;;;;;;;;;;;20.10;45.20;;;;;;675389;29;1096;-89
2021/12/17 03:25:15;;;;;;;;;;;20.10;45.20;;;;;;675363;29;1123;-90
2021/12/17 03:25:36;;;;;;;;;;;20.10;45.20;;;;;;672604;29;1130;-88
2021/12/17 03:25:57;;;;;;;;;;;20.10;45.20;;;;;;672679;29;1214;-87
2021/12/17 03:26:22;;;;;;;;;;;20.10;45.20;;;;;;670685;29;1116;-91
2021/12/17 03:26:43;;;;;;;;;;;20.10;45.20;;;;;;670303;29;1144;-89
2021/12/17 03:27:04;;;;;;;;;;;20.10;45.20;;;;;;669605;29;1127;-93
2021/12/17 03:27:25;;;;;;;;;;;20.00;45.20;;;;;;670931;29;1955;-88
2021/12/17 03:27:45;;;;;;;;;;;20.10;45.30;;;;;;667871;29;1068;-91
2021/12/17 03:28:06;;;;;;;;;;;20.10;45.30;;;;;;671330;29;1354;-90
2021/12/17 03:28:26;;;;;;;;;;;20.10;45.40;;;;;;673951;29;1203;-91
2021/12/17 03:28:51;;;;;;;;;;;20.10;45.50;;;;;;670472;29;1251;-87
2021/12/17 03:29:11;;;;;;;;;;;20.10;45.40;;;;;;670430;29;1311;-87
2021/12/17 03:29:32;;;;;;;;;;;20.00;45.40;;;;;;668328;29;1140;-87
2021/12/17 03:29:53;;;;;;;;;;;20.10;45.50;;;;;;669572;29;1518;-83
2021/12/17 03:30:13;;;;;;;;;;;20.10;45.70;;;;;;665439;29;1315;-88
2021/12/17 03:30:34;;;;;;;;;;;20.10;45.70;;;;;;665784;29;1083;-90
2021/12/17 03:30:55;;;;;;;;;;;20.10;45.90;;;;;;667763;29;1372;-90
2021/12/17 03:31:16;;;;;;;;;;;20.10;45.90;;;;;;665447;29;1418;-85
2021/12/17 03:31:37;;;;;;;;;;;20.10;45.90;;;;;;668503;29;896;-89
2021/12/17 03:32:00;;;;;;;;;;;20.10;45.90;;;;;;671650;29;1415;-87
2021/12/17 03:32:20;;;;;;;;;;;20.10;45.90;;;;;;672167;29;1142;-89
2021/12/17 03:32:41;;;;;;;;;;;20.10;45.90;;;;;;673514;29;1192;-87
2021/12/17 03:33:02;;;;;;;;;;;20.10;45.90;;;;;;675270;29;1120;-87
2021/12/17 03:33:22;;;;;;;;;;;20.10;45.90;;;;;;672441;29;1362;-89
2021/12/17 03:33:44;;;;;;;;;;;20.10;45.90;;;;;;672479;29;1252;-89
2021/12/17 03:34:18;;;;;;;;;;;20.00;45.90;;;;;;672622;29;1273;-89
2021/12/17 03:34:38;;;;;;;;;;;20.10;46.00;;;;;;672699;29;1398;-89
2021/12/17 03:35:00;;;;;;;;;;;20.10;46.00;;;;;;672772;29;1270;-87
2021/12/17 03:35:21;;;;;;;;;;;20.10;45.90;;;;;;674631;29;1205;-86
2021/12/17 03:35:41;;;;;;;;;;;20.10;45.90;;;;;;674947;29;1203;-88
2021/12/17 03:36:02;;;;;;;;;;;20.10;46.00;;;;;;675170;29;1183;-90
2021/12/17 03:36:22;;;;;;;;;;;20.10;45.90;;;;;;676056;29;974;-90
2021/12/17 03:36:45;;;;;;;;;;;20.10;45.90;;;;;;675655;29;1265;-91
2021/12/17 03:37:05;;;;;;;;;;;20.10;45.90;;;;;;675048;29;1258;-91
2021/12/17 03:37:26;;;;;;;;;;;20.10;45.90;;;;;;672827;29;1189;-90
2021/12/17 03:37:47;;;;;;;;;;;20.10;45.90;;;;;;672530;29;1231;-91
2021/12/17 03:38:07;;;;;;;;;;;20.10;45.80;;;;;;672867;29;1239;-90
2021/12/17 03:38:28;;;;;;;;;;;20.10;45.80;;;;;;672862;29;1377;-92
2021/12/17 03:38:50;;;;;;;;;;;20.10;45.80;;;;;;670127;29;1100;-90
2021/12/17 03:39:11;;;;;;;;;;;20.10;45.80;;;;;;670816;29;1251;-91
2021/12/17 03:39:31;;;;;;;;;;;20.10;45.80;;;;;;673095;29;1148;-91
2021/12/17 03:39:52;;;;;;;;;;;20.10;45.80;;;;;;670546;29;1101;-92
2021/12/17 03:40:15;;;;;;;;;;;20.10;45.80;;;;;;671182;29;1034;-93
2021/12/17 03:40:36;;;;;;;;;;;20.10;45.80;;;;;;671261;29;1385;-91
2021/12/17 03:41:16;;;;;;;;;;;20.10;45.70;;;;;;672370;29;1200;-93
2021/12/17 03:41:38;;;;;;;;;;;20.10;45.70;;;;;;673285;29;1246;-92
2021/12/17 03:42:00;;;;;;;;;;;20.10;45.70;;;;;;672903;29;1146;-92
2021/12/17 03:42:21;;;;;;;;;;;20.10;45.70;;;;;;673662;29;1262;-90
2021/12/17 03:42:47;;;;;;;;;;;20.10;45.70;;;;;;675671;29;1167;-92
2021/12/17 03:43:12;;;;;;;;;;;20.10;45.70;;;;;;673133;29;1496;-92
2021/12/17 03:43:33;;;;;;;;;;;20.10;46.80;;;;;;673275;29;1307;-91
2021/12/17 03:43:54;;;;;;;;;;;20.10;45.70;;;;;;673224;29;1215;-92
2021/12/17 03:44:14;;;;;;;;;;;20.10;45.70;;;;;;671561;29;983;-90
2021/12/17 03:44:36;;;;;;;;;;;20.10;45.70;;;;;;672286;29;1272;-91
2021/12/17 03:44:56;;;;;;;;;;;20.10;45.70;;;;;;674119;29;1313;-91
2021/12/17 03:45:19;;;;;;;;;;;20.10;46.80;;;;;;672973;29;1239;-88
2021/12/17 03:45:40;;;;;;;;;;;20.10;45.70;;;;;;669989;29;1315;-89
2021/12/17 03:46:01;;;;;;;;;;;20.10;45.70;;;;;;670254;29;1153;-90
2021/12/17 03:46:22;;;;;;;;;;;20.10;45.70;;;;;;671252;29;1160;-89
2021/12/17 03:46:45;;;;;;;;;;;20.10;45.70;;;;;;672926;29;1128;-89
2021/12/17 03:47:06;;;;;;;;;;;20.10;45.60;;;;;;674073;29;1192;-88
2021/12/17 03:47:27;;;;;;;;;;;20.10;45.60;;;;;;675693;29;1891;-88
2021/12/17 03:47:48;;;;;;;;;;;20.10;45.60;;;;;;676181;29;999;-87
2021/12/17 03:48:08;;;;;;;;;;;20.10;45.60;;;;;;676938;29;1084;-89
2021/12/17 03:48:30;;;;;;;;;;;20.10;45.60;;;;;;675886;29;1207;-88
2021/12/17 03:48:51;;;;;;;;;;;20.10;45.60;;;;;;673732;29;1243;-88
2021/12/17 03:49:13;;;;;;;;;;;20.10;45.60;;;;;;675297;29;1191;-88
2021/12/17 03:49:36;;;;;;;;;;;20.10;45.50;;;;;;675348;29;1358;-88
2021/12/17 03:49:58;;;;;;;;;;;20.10;45.50;;;;;;674085;29;1307;-87
2021/12/17 03:50:19;;;;;;;;;;;20.10;45.50;;;;;;672135;29;1333;-88
2021/12/17 03:50:39;;;;;;;;;;;20.10;45.60;;;;;;671763;29;1176;-87
2021/12/17 03:51:00;;;;;;;;;;;20.10;45.60;;;;;;673573;29;904;-88
2021/12/17 03:51:20;;;;;;;;;;;20.10;45.50;;;;;;673390;29;1007;-89
2021/12/17 03:51:50;;;;;;;;;;;20.10;45.50;;;;;;673618;29;1164;-89
2021/12/17 03:52:10;;;;;;;;;;;20.10;45.50;;;;;;674310;29;1432;-89
2021/12/17 03:52:31;;;;;;;;;;;20.10;45.50;;;;;;675512;29;1194;-89
2021/12/17 03:52:52;;;;;;;;;;;20.10;45.50;;;;;;675500;29;1203;-89
2021/12/17 03:53:12;;;;;;;;;;;20.10;45.60;;;;;;672854;29;1230;-90